Neptus — OR6509 — position and weather

sailwx.info

Track history (hours):
 
Tides and Currents Weather Stations Pressure Air Temp Water Temp Dewpoint Dewpoint Depression Visibility Wind Speed Wind Dir Waves Ship Positions

Neptus

Last reported at 2017-Aug-19 07:29 UTC. Time now 2017-Sep-21 18:04 UTC.
Position N 36°59' E 025°18'.
Warning: this ship's position is 33 days out of date.

Length 20 m.

Type: Sailing vessel. MMSI: 205650910.

Date/timePositionNaut miles runAvg speedWind from/ knotsBaromVisibWave heightAir tempDewpointWater temp
2017-Aug-19 07:29N 36°59' E 025°18'3 6.7
2017-Aug-19 07:00N 37°02' E 025°20'2 4.0
2017-Aug-19 06:30N 37°04' E 025°21'0 0.4
2017-Aug-19 05:58N 37°04' E 025°21'0 0.0
2017-Aug-19 05:28N 37°04' E 025°21'0 0.0
2017-Aug-19 04:58N 37°04' E 025°21'0 0.0
2017-Aug-19 04:28N 37°04' E 025°21'0 0.0
2017-Aug-19 03:58N 37°04' E 025°21'0 0.0
2017-Aug-19 03:28N 37°04' E 025°21'0 0.0
2017-Aug-19 02:58N 37°04' E 025°21'0 0.0
2017-Aug-19 02:28N 37°04' E 025°21'0 0.0
2017-Aug-19 01:58N 37°04' E 025°21'0 0.0
2017-Aug-19 01:28N 37°04' E 025°21'0 0.0
2017-Aug-19 00:58N 37°04' E 025°21'0 0.0
2017-Aug-19 00:28N 37°04' E 025°21'0 0.0
2017-Aug-18 23:58N 37°04' E 025°21'0 0.0
2017-Aug-18 23:29N 37°04' E 025°21'0 0.0
2017-Aug-18 22:58N 37°04' E 025°21'0 0.0
2017-Aug-18 22:22N 37°04' E 025°21'0 0.0
2017-Aug-18 21:58N 37°04' E 025°21'0 0.0
2017-Aug-18 21:28N 37°04' E 025°21'0 0.0
2017-Aug-18 20:58N 37°04' E 025°21'0 0.0
2017-Aug-18 20:28N 37°04' E 025°21'0 0.0
2017-Aug-18 19:58N 37°04' E 025°21'0 0.0
2017-Aug-18 19:28N 37°04' E 025°21'0 0.0
2017-Aug-18 18:58N 37°04' E 025°21'0 0.0
2017-Aug-18 18:28N 37°04' E 025°21'0 0.0
2017-Aug-18 17:58N 37°04' E 025°21'0 0.0
2017-Aug-18 17:28N 37°04' E 025°21'0 0.0
2017-Aug-18 16:58N 37°04' E 025°21'0 0.1
2017-Aug-18 16:30N 37°04' E 025°21'1 1.3
2017-Aug-18 15:57N 37°05' E 025°20'0 0.0
2017-Aug-18 15:30N 37°05' E 025°20'0 0.0
2017-Aug-18 15:00N 37°05' E 025°20'0 0.0
2017-Aug-18 14:00N 37°05' E 025°20'0 0.0
2017-Aug-18 13:30N 37°05' E 025°20'0 0.0
2017-Aug-18 13:00N 37°05' E 025°20'0 0.0
2017-Aug-18 12:30N 37°05' E 025°20'0 0.0
2017-Aug-18 11:57N 37°05' E 025°20'0 0.0
2017-Aug-18 11:30N 37°05' E 025°20'0 0.0
2017-Aug-18 11:00N 37°05' E 025°20'0 0.0
2017-Aug-18 10:30N 37°05' E 025°20'0 0.0
2017-Aug-18 10:00N 37°05' E 025°20'2 3.2
2017-Aug-18 09:30N 37°06' E 025°21'3 6.0
2017-Aug-18 09:00N 37°09' E 025°21'3 5.1
2017-Aug-18 08:30N 37°12' E 025°21'3 5.2
2017-Aug-18 08:00N 37°14' E 025°21'3 6.4
2017-Aug-18 07:30N 37°17' E 025°21'3 6.6
2017-Aug-18 07:00N 37°21' E 025°21'3 6.8
2017-Aug-18 06:30N 37°24' E 025°20'1 1.0
2017-Aug-18 05:58N 37°25' E 025°20'0 0.0
2017-Aug-18 05:28N 37°25' E 025°20'0 0.0
2017-Aug-18 04:58N 37°25' E 025°20'0 0.0
2017-Aug-18 04:25N 37°25' E 025°20'0 0.0
2017-Aug-18 03:58N 37°25' E 025°20'0 0.0
2017-Aug-18 03:19N 37°25' E 025°20'0 0.0
2017-Aug-18 02:58N 37°25' E 025°20'0 0.0
2017-Aug-18 02:19N 37°25' E 025°20'0 0.0
2017-Aug-18 01:58N 37°25' E 025°20'0 0.0
2017-Aug-18 01:28N 37°25' E 025°20'0 0.0
2017-Aug-18 00:58N 37°25' E 025°20'0 0.0
2017-Aug-18 00:28N 37°25' E 025°20'0 0.0
2017-Aug-17 23:58N 37°25' E 025°20'0 0.0
2017-Aug-17 23:28N 37°25' E 025°20'0 0.0
2017-Aug-17 22:58N 37°25' E 025°20'0 0.0
2017-Aug-17 22:28N 37°25' E 025°20'0 0.0
2017-Aug-17 21:58N 37°25' E 025°20'0 0.0
2017-Aug-17 21:28N 37°25' E 025°20'0 0.0
2017-Aug-17 20:58N 37°25' E 025°20'0 0.0
2017-Aug-17 20:25N 37°25' E 025°20'0 0.0
2017-Aug-17 19:58N 37°25' E 025°20'0 0.0
2017-Aug-17 19:28N 37°25' E 025°20'0 0.0
2017-Aug-17 18:49N 37°25' E 025°20'0 0.0
2017-Aug-17 18:25N 37°25' E 025°20'0 0.0
2017-Aug-17 17:58N 37°25' E 025°20'0 0.0
2017-Aug-17 17:28N 37°25' E 025°20'0 0.0
2017-Aug-17 16:58N 37°25' E 025°20'0 0.0
2017-Aug-17 16:28N 37°25' E 025°20'0 0.0
2017-Aug-17 15:58N 37°25' E 025°20'0 0.0
2017-Aug-17 15:28N 37°25' E 025°20'0 0.0
2017-Aug-17 14:55N 37°25' E 025°20'0 0.0
2017-Aug-17 14:28N 37°25' E 025°20'0 0.0
2017-Aug-17 13:55N 37°25' E 025°20'0 0.0
2017-Aug-17 13:28N 37°25' E 025°20'0 0.0
2017-Aug-17 12:58N 37°25' E 025°21'0 0.0
2017-Aug-17 12:28N 37°25' E 025°21'0 0.0
2017-Aug-17 11:58N 37°25' E 025°20'0 0.0
2017-Aug-17 11:28N 37°25' E 025°20'0 0.0
2017-Aug-17 10:58N 37°25' E 025°20'0 0.0
2017-Aug-17 10:28N 37°25' E 025°20'0 0.0
2017-Aug-17 09:55N 37°25' E 025°20'0 0.0
2017-Aug-17 09:28N 37°25' E 025°20'0 0.0
2017-Aug-17 08:58N 37°25' E 025°20'0 0.0
2017-Aug-17 08:28N 37°25' E 025°21'0 0.0
2017-Aug-17 07:58N 37°25' E 025°20'0 0.0
2017-Aug-17 07:28N 37°25' E 025°20'0 0.0
2017-Aug-17 06:55N 37°25' E 025°20'0 0.0
2017-Aug-17 06:28N 37°25' E 025°20'0 0.0
2017-Aug-17 05:58N 37°25' E 025°20'0 0.0
2017-Aug-17 05:28N 37°25' E 025°20'0 0.0
2017-Aug-17 04:58N 37°25' E 025°20'0 0.0
2017-Aug-17 04:28N 37°25' E 025°20'0 0.0
2017-Aug-17 03:58N 37°25' E 025°20'0 0.0
2017-Aug-17 03:28N 37°25' E 025°20'0 0.0
2017-Aug-17 02:58N 37°25' E 025°20'0 0.0
2017-Aug-17 02:28N 37°25' E 025°20'0 0.0
2017-Aug-17 01:58N 37°25' E 025°20'0 0.0
2017-Aug-17 01:25N 37°25' E 025°20'0 0.0
2017-Aug-17 00:58N 37°25' E 025°21'0 0.0
2017-Aug-17 00:28N 37°25' E 025°20'0 0.0
2017-Aug-16 23:58N 37°25' E 025°20'0 0.0
2017-Aug-16 23:25N 37°25' E 025°20'0 0.0
2017-Aug-16 22:58N 37°25' E 025°21'0 0.0
2017-Aug-16 22:28N 37°25' E 025°20'0 0.0
2017-Aug-16 21:58N 37°25' E 025°20'0 0.0
2017-Aug-16 21:25N 37°25' E 025°20'0 0.0
2017-Aug-16 20:58N 37°25' E 025°20'0 0.0
2017-Aug-16 20:28N 37°25' E 025°20'0 0.0
2017-Aug-16 19:58N 37°25' E 025°20'0 0.0
2017-Aug-16 19:28N 37°25' E 025°21'0 0.0
2017-Aug-16 18:58N 37°25' E 025°21'0 0.0
2017-Aug-16 18:10N 37°25' E 025°20'0 0.0
2017-Aug-16 17:49N 37°25' E 025°21'0 0.0
2017-Aug-16 17:28N 37°25' E 025°21'0 0.0
2017-Aug-16 16:49N 37°25' E 025°20'0 0.0
2017-Aug-16 16:10N 37°25' E 025°21'0 0.0
2017-Aug-16 15:49N 37°25' E 025°21'0 0.0
2017-Aug-16 15:25N 37°25' E 025°21'0 0.0
2017-Aug-16 14:28N 37°25' E 025°21'0 0.0
2017-Aug-16 13:55N 37°25' E 025°21'0 0.0
2017-Aug-16 13:22N 37°25' E 025°20'0 0.0
2017-Aug-16 12:58N 37°25' E 025°21'0 0.0
2017-Aug-16 12:28N 37°25' E 025°21'0 0.0
2017-Aug-16 11:49N 37°25' E 025°21'0 0.0
2017-Aug-16 11:22N 37°25' E 025°20'0 0.0
2017-Aug-16 10:49N 37°25' E 025°21'0 0.0
2017-Aug-16 10:22N 37°25' E 025°21'0 0.0
2017-Aug-16 09:55N 37°25' E 025°21'0 0.0
2017-Aug-16 09:28N 37°25' E 025°21'0 0.0
2017-Aug-16 08:58N 37°25' E 025°21'0 0.0
2017-Aug-16 08:28N 37°25' E 025°20'0 0.0
2017-Aug-16 07:58N 37°25' E 025°21'0 0.0
2017-Aug-16 07:28N 37°25' E 025°20'0 0.0
2017-Aug-16 06:58N 37°25' E 025°20'0 0.0
2017-Aug-16 06:28N 37°25' E 025°20'0 0.0
2017-Aug-16 05:58N 37°25' E 025°20'0 0.0
2017-Aug-16 05:28N 37°25' E 025°20'0 0.0
2017-Aug-16 04:58N 37°25' E 025°20'0 0.0
2017-Aug-16 04:28N 37°25' E 025°20'0 0.0
2017-Aug-16 03:58N 37°25' E 025°20'0 0.0
2017-Aug-16 03:28N 37°25' E 025°20'0 0.0
2017-Aug-16 02:58N 37°25' E 025°20'0 0.0
2017-Aug-16 02:28N 37°25' E 025°20'0 0.0
2017-Aug-16 01:55N 37°25' E 025°20'0 0.0
2017-Aug-16 01:25N 37°25' E 025°21'0 0.0
2017-Aug-16 00:55N 37°25' E 025°20'0 0.0
2017-Aug-16 00:28N 37°25' E 025°20'0 0.0
2017-Aug-15 23:58N 37°25' E 025°20'0 0.0
2017-Aug-15 23:28N 37°25' E 025°20'0 0.0
2017-Aug-15 22:58N 37°25' E 025°21'0 0.0
2017-Aug-15 22:28N 37°25' E 025°20'0 0.0
2017-Aug-15 21:58N 37°25' E 025°21'0 0.0
2017-Aug-15 21:28N 37°25' E 025°21'0 0.0
2017-Aug-15 20:58N 37°25' E 025°21'0 0.0
2017-Aug-15 20:28N 37°25' E 025°21'0 0.0
2017-Aug-15 19:58N 37°25' E 025°21'0 0.0
2017-Aug-15 19:28N 37°25' E 025°21'0 0.0
2017-Aug-15 18:58N 37°25' E 025°21'0 0.0
2017-Aug-15 18:28N 37°25' E 025°21'0 0.0
2017-Aug-15 17:55N 37°25' E 025°21'0 0.0
2017-Aug-15 17:28N 37°25' E 025°21'0 0.0
2017-Aug-15 16:58N 37°25' E 025°21'0 0.0
2017-Aug-15 16:28N 37°25' E 025°21'0 0.0
2017-Aug-15 15:58N 37°25' E 025°21'0 0.0
2017-Aug-15 15:25N 37°25' E 025°21'0 0.0
2017-Aug-15 14:58N 37°25' E 025°20'0 0.0
2017-Aug-15 14:19N 37°25' E 025°20'0 0.0
2017-Aug-15 13:55N 37°25' E 025°20'0 0.0
2017-Aug-15 13:25N 37°25' E 025°20'0 0.0
2017-Aug-15 12:55N 37°25' E 025°20'0 0.0
2017-Aug-15 12:28N 37°25' E 025°20'0 0.0
2017-Aug-15 11:58N 37°25' E 025°20'0 0.0
2017-Aug-15 11:25N 37°25' E 025°20'0 0.0
2017-Aug-15 10:52N 37°25' E 025°20'0 0.3
2017-Aug-15 10:30N 37°25' E 025°21'2 3.3
2017-Aug-15 09:59N 37°24' E 025°19'4 7.2
2017-Aug-15 09:30N 37°26' E 025°16'4 7.5
2017-Aug-15 08:58N 37°29' E 025°12'3 5.6
2017-Aug-15 08:30N 37°31' E 025°09'  
Track history (hours):
 
Tides and Currents Weather Stations Pressure Air Temp Water Temp Dewpoint Dewpoint Depression Visibility Wind Speed Wind Dir Waves Ship Positions

Neptus

Last reported at 2017-Aug-19 07:29 UTC. Time now 2017-Sep-21 18:04 UTC.
Position N 36°59' E 025°18'.
Warning: this ship's position is 33 days out of date.

Length 20 m.

Type: Sailing vessel. MMSI: 205650910.

Date/timePositionNaut miles runAvg speedWind from/ knotsBaromVisibWave heightAir tempDewpointWater temp
2017-Aug-19 07:29N 36°59' E 025°18'3 6.7
2017-Aug-19 07:00N 37°02' E 025°20'2 4.0
2017-Aug-19 06:30N 37°04' E 025°21'0 0.4
2017-Aug-19 05:58N 37°04' E 025°21'0 0.0
2017-Aug-19 05:28N 37°04' E 025°21'0 0.0
2017-Aug-19 04:58N 37°04' E 025°21'0 0.0
2017-Aug-19 04:28N 37°04' E 025°21'0 0.0
2017-Aug-19 03:58N 37°04' E 025°21'0 0.0
2017-Aug-19 03:28N 37°04' E 025°21'0 0.0
2017-Aug-19 02:58N 37°04' E 025°21'0 0.0
2017-Aug-19 02:28N 37°04' E 025°21'0 0.0
2017-Aug-19 01:58N 37°04' E 025°21'0 0.0
2017-Aug-19 01:28N 37°04' E 025°21'0 0.0
2017-Aug-19 00:58N 37°04' E 025°21'0 0.0
2017-Aug-19 00:28N 37°04' E 025°21'0 0.0
2017-Aug-18 23:58N 37°04' E 025°21'0 0.0
2017-Aug-18 23:29N 37°04' E 025°21'0 0.0
2017-Aug-18 22:58N 37°04' E 025°21'0 0.0
2017-Aug-18 22:22N 37°04' E 025°21'0 0.0
2017-Aug-18 21:58N 37°04' E 025°21'0 0.0
2017-Aug-18 21:28N 37°04' E 025°21'0 0.0
2017-Aug-18 20:58N 37°04' E 025°21'0 0.0
2017-Aug-18 20:28N 37°04' E 025°21'0 0.0
2017-Aug-18 19:58N 37°04' E 025°21'0 0.0
2017-Aug-18 19:28N 37°04' E 025°21'0 0.0
2017-Aug-18 18:58N 37°04' E 025°21'0 0.0
2017-Aug-18 18:28N 37°04' E 025°21'0 0.0
2017-Aug-18 17:58N 37°04' E 025°21'0 0.0
2017-Aug-18 17:28N 37°04' E 025°21'0 0.0
2017-Aug-18 16:58N 37°04' E 025°21'0 0.1
2017-Aug-18 16:30N 37°04' E 025°21'1 1.3
2017-Aug-18 15:57N 37°05' E 025°20'0 0.0
2017-Aug-18 15:30N 37°05' E 025°20'0 0.0
2017-Aug-18 15:00N 37°05' E 025°20'0 0.0
2017-Aug-18 14:00N 37°05' E 025°20'0 0.0
2017-Aug-18 13:30N 37°05' E 025°20'0 0.0
2017-Aug-18 13:00N 37°05' E 025°20'0 0.0
2017-Aug-18 12:30N 37°05' E 025°20'0 0.0
2017-Aug-18 11:57N 37°05' E 025°20'0 0.0
2017-Aug-18 11:30N 37°05' E 025°20'0 0.0
2017-Aug-18 11:00N 37°05' E 025°20'0 0.0
2017-Aug-18 10:30N 37°05' E 025°20'0 0.0
2017-Aug-18 10:00N 37°05' E 025°20'2 3.2
2017-Aug-18 09:30N 37°06' E 025°21'3 6.0
2017-Aug-18 09:00N 37°09' E 025°21'3 5.1
2017-Aug-18 08:30N 37°12' E 025°21'3 5.2
2017-Aug-18 08:00N 37°14' E 025°21'3 6.4
2017-Aug-18 07:30N 37°17' E 025°21'3 6.6
2017-Aug-18 07:00N 37°21' E 025°21'3 6.8
2017-Aug-18 06:30N 37°24' E 025°20'1 1.0
2017-Aug-18 05:58N 37°25' E 025°20'0 0.0
2017-Aug-18 05:28N 37°25' E 025°20'0 0.0
2017-Aug-18 04:58N 37°25' E 025°20'0 0.0
2017-Aug-18 04:25N 37°25' E 025°20'0 0.0
2017-Aug-18 03:58N 37°25' E 025°20'0 0.0
2017-Aug-18 03:19N 37°25' E 025°20'0 0.0
2017-Aug-18 02:58N 37°25' E 025°20'0 0.0
2017-Aug-18 02:19N 37°25' E 025°20'0 0.0
2017-Aug-18 01:58N 37°25' E 025°20'0 0.0
2017-Aug-18 01:28N 37°25' E 025°20'0 0.0
2017-Aug-18 00:58N 37°25' E 025°20'0 0.0
2017-Aug-18 00:28N 37°25' E 025°20'0 0.0
2017-Aug-17 23:58N 37°25' E 025°20'0 0.0
2017-Aug-17 23:28N 37°25' E 025°20'0 0.0
2017-Aug-17 22:58N 37°25' E 025°20'0 0.0
2017-Aug-17 22:28N 37°25' E 025°20'0 0.0
2017-Aug-17 21:58N 37°25' E 025°20'0 0.0
2017-Aug-17 21:28N 37°25' E 025°20'0 0.0
2017-Aug-17 20:58N 37°25' E 025°20'0 0.0
2017-Aug-17 20:25N 37°25' E 025°20'0 0.0
2017-Aug-17 19:58N 37°25' E 025°20'0 0.0
2017-Aug-17 19:28N 37°25' E 025°20'0 0.0
2017-Aug-17 18:49N 37°25' E 025°20'0 0.0
2017-Aug-17 18:25N 37°25' E 025°20'0 0.0
2017-Aug-17 17:58N 37°25' E 025°20'0 0.0
2017-Aug-17 17:28N 37°25' E 025°20'0 0.0
2017-Aug-17 16:58N 37°25' E 025°20'0 0.0
2017-Aug-17 16:28N 37°25' E 025°20'0 0.0
2017-Aug-17 15:58N 37°25' E 025°20'0 0.0
2017-Aug-17 15:28N 37°25' E 025°20'0 0.0
2017-Aug-17 14:55N 37°25' E 025°20'0 0.0
2017-Aug-17 14:28N 37°25' E 025°20'0 0.0
2017-Aug-17 13:55N 37°25' E 025°20'0 0.0
2017-Aug-17 13:28N 37°25' E 025°20'0 0.0
2017-Aug-17 12:58N 37°25' E 025°21'0 0.0
2017-Aug-17 12:28N 37°25' E 025°21'0 0.0
2017-Aug-17 11:58N 37°25' E 025°20'0 0.0
2017-Aug-17 11:28N 37°25' E 025°20'0 0.0
2017-Aug-17 10:58N 37°25' E 025°20'0 0.0
2017-Aug-17 10:28N 37°25' E 025°20'0 0.0
2017-Aug-17 09:55N 37°25' E 025°20'0 0.0
2017-Aug-17 09:28N 37°25' E 025°20'0 0.0
2017-Aug-17 08:58N 37°25' E 025°20'0 0.0
2017-Aug-17 08:28N 37°25' E 025°21'0 0.0
2017-Aug-17 07:58N 37°25' E 025°20'0 0.0
2017-Aug-17 07:28N 37°25' E 025°20'0 0.0
2017-Aug-17 06:55N 37°25' E 025°20'0 0.0
2017-Aug-17 06:28N 37°25' E 025°20'0 0.0
2017-Aug-17 05:58N 37°25' E 025°20'0 0.0
2017-Aug-17 05:28N 37°25' E 025°20'0 0.0
2017-Aug-17 04:58N 37°25' E 025°20'0 0.0
2017-Aug-17 04:28N 37°25' E 025°20'0 0.0
2017-Aug-17 03:58N 37°25' E 025°20'0 0.0
2017-Aug-17 03:28N 37°25' E 025°20'0 0.0
2017-Aug-17 02:58N 37°25' E 025°20'0 0.0
2017-Aug-17 02:28N 37°25' E 025°20'0 0.0
2017-Aug-17 01:58N 37°25' E 025°20'0 0.0
2017-Aug-17 01:25N 37°25' E 025°20'0 0.0
2017-Aug-17 00:58N 37°25' E 025°21'0 0.0
2017-Aug-17 00:28N 37°25' E 025°20'0 0.0
2017-Aug-16 23:58N 37°25' E 025°20'0 0.0
2017-Aug-16 23:25N 37°25' E 025°20'0 0.0
2017-Aug-16 22:58N 37°25' E 025°21'0 0.0
2017-Aug-16 22:28N 37°25' E 025°20'0 0.0
2017-Aug-16 21:58N 37°25' E 025°20'0 0.0
2017-Aug-16 21:25N 37°25' E 025°20'0 0.0
2017-Aug-16 20:58N 37°25' E 025°20'0 0.0
2017-Aug-16 20:28N 37°25' E 025°20'0 0.0
2017-Aug-16 19:58N 37°25' E 025°20'0 0.0
2017-Aug-16 19:28N 37°25' E 025°21'0 0.0
2017-Aug-16 18:58N 37°25' E 025°21'0 0.0
2017-Aug-16 18:10N 37°25' E 025°20'0 0.0
2017-Aug-16 17:49N 37°25' E 025°21'0 0.0
2017-Aug-16 17:28N 37°25' E 025°21'0 0.0
2017-Aug-16 16:49N 37°25' E 025°20'0 0.0
2017-Aug-16 16:10N 37°25' E 025°21'0 0.0
2017-Aug-16 15:49N 37°25' E 025°21'0 0.0
2017-Aug-16 15:25N 37°25' E 025°21'0 0.0
2017-Aug-16 14:28N 37°25' E 025°21'0 0.0
2017-Aug-16 13:55N 37°25' E 025°21'0 0.0
2017-Aug-16 13:22N 37°25' E 025°20'0 0.0
2017-Aug-16 12:58N 37°25' E 025°21'0 0.0
2017-Aug-16 12:28N 37°25' E 025°21'0 0.0
2017-Aug-16 11:49N 37°25' E 025°21'0 0.0
2017-Aug-16 11:22N 37°25' E 025°20'0 0.0
2017-Aug-16 10:49N 37°25' E 025°21'0 0.0
2017-Aug-16 10:22N 37°25' E 025°21'0 0.0
2017-Aug-16 09:55N 37°25' E 025°21'0 0.0
2017-Aug-16 09:28N 37°25' E 025°21'0 0.0
2017-Aug-16 08:58N 37°25' E 025°21'0 0.0
2017-Aug-16 08:28N 37°25' E 025°20'0 0.0
2017-Aug-16 07:58N 37°25' E 025°21'0 0.0
2017-Aug-16 07:28N 37°25' E 025°20'0 0.0
2017-Aug-16 06:58N 37°25' E 025°20'0 0.0
2017-Aug-16 06:28N 37°25' E 025°20'0 0.0
2017-Aug-16 05:58N 37°25' E 025°20'0 0.0
2017-Aug-16 05:28N 37°25' E 025°20'0 0.0
2017-Aug-16 04:58N 37°25' E 025°20'0 0.0
2017-Aug-16 04:28N 37°25' E 025°20'0 0.0
2017-Aug-16 03:58N 37°25' E 025°20'0 0.0
2017-Aug-16 03:28N 37°25' E 025°20'0 0.0
2017-Aug-16 02:58N 37°25' E 025°20'0 0.0
2017-Aug-16 02:28N 37°25' E 025°20'0 0.0
2017-Aug-16 01:55N 37°25' E 025°20'0 0.0
2017-Aug-16 01:25N 37°25' E 025°21'0 0.0
2017-Aug-16 00:55N 37°25' E 025°20'0 0.0
2017-Aug-16 00:28N 37°25' E 025°20'0 0.0
2017-Aug-15 23:58N 37°25' E 025°20'0 0.0
2017-Aug-15 23:28N 37°25' E 025°20'0 0.0
2017-Aug-15 22:58N 37°25' E 025°21'0 0.0
2017-Aug-15 22:28N 37°25' E 025°20'0 0.0
2017-Aug-15 21:58N 37°25' E 025°21'0 0.0
2017-Aug-15 21:28N 37°25' E 025°21'0 0.0
2017-Aug-15 20:58N 37°25' E 025°21'0 0.0
2017-Aug-15 20:28N 37°25' E 025°21'0 0.0
2017-Aug-15 19:58N 37°25' E 025°21'0 0.0
2017-Aug-15 19:28N 37°25' E 025°21'0 0.0
2017-Aug-15 18:58N 37°25' E 025°21'0 0.0
2017-Aug-15 18:28N 37°25' E 025°21'0 0.0
2017-Aug-15 17:55N 37°25' E 025°21'0 0.0
2017-Aug-15 17:28N 37°25' E 025°21'0 0.0
2017-Aug-15 16:58N 37°25' E 025°21'0 0.0
2017-Aug-15 16:28N 37°25' E 025°21'0 0.0
2017-Aug-15 15:58N 37°25' E 025°21'0 0.0
2017-Aug-15 15:25N 37°25' E 025°21'0 0.0
2017-Aug-15 14:58N 37°25' E 025°20'0 0.0
2017-Aug-15 14:19N 37°25' E 025°20'0 0.0
2017-Aug-15 13:55N 37°25' E 025°20'0 0.0
2017-Aug-15 13:25N 37°25' E 025°20'0 0.0
2017-Aug-15 12:55N 37°25' E 025°20'0 0.0
2017-Aug-15 12:28N 37°25' E 025°20'0 0.0
2017-Aug-15 11:58N 37°25' E 025°20'0 0.0
2017-Aug-15 11:25N 37°25' E 025°20'0 0.0
2017-Aug-15 10:52N 37°25' E 025°20'0 0.3
2017-Aug-15 10:30N 37°25' E 025°21'2 3.3
2017-Aug-15 09:59N 37°24' E 025°19'4 7.2
2017-Aug-15 09:30N 37°26' E 025°16'4 7.5
2017-Aug-15 08:58N 37°29' E 025°12'3 5.6
2017-Aug-15 08:30N 37°31' E 025°09'  

Dump ship's entire track history